Strona główna
METAR-TAF:

METAR-TAF

Lotnisko :

Somerset Airport

Somerville, New Jersey, Stany Zjednoczone

Szerokość geograficzna: 40-37-26N, Długość geograficzna: 074-40-10W, wysokość: 32 m

Aktualna obserwacja pogody

Raport powstał 31 minut temu, godzina 08:53 UTC
Cisza
Temperatura 12°C
Wilgotność 94%
Ciśnienie 1011 hPa
Widzialność: 16.1 km
bezchmurnie

METAR: KSMQ 070853Z AUTO 00000KT 10SM CLR 12/11 A2985 RMK AO2 SLP107 T01170106 53008

czas: 05:24 (09:24 UTC)


TAF: brakujący

Obserwacja i prognoza pogody dla ponad 4000 lotnisk (raport METAR i TAF).

Dostępne stacje oznaczono żółtymi i czerwonymi punktami na mapie.

Najedź kursorem aby zobaczyć nazwę stacji.

Kliknij aby zobaczyć obserwacje i prognozy pogody.

Aby zmienić mapę: kliknij na zielony przycisk z czarnym krzyżykiem, aby powiększyć; na zielony przycisk z myślnikiem, aby pomniejszyć; na zielone strzałki, aby przejść do map sąsiednich.


METAR-TAF: